sensor_id;sensor_type;location;lat;lon;timestamp;P1;durP1;ratioP1;P2;durP2;ratioP2
29958;SDS011;16815;51.100;6.516;2022-08-03T00:01:24;24.17;;;5.37;;
29958;SDS011;16815;51.100;6.516;2022-08-03T00:03:50;37.57;;;5.63;;
29958;SDS011;16815;51.100;6.516;2022-08-03T00:06:16;34.30;;;5.07;;
29958;SDS011;16815;51.100;6.516;2022-08-03T00:08:42;29.13;;;5.07;;
29958;SDS011;16815;51.100;6.516;2022-08-03T00:11:08;23.83;;;3.80;;
29958;SDS011;16815;51.100;6.516;2022-08-03T00:13:34;33.37;;;4.43;;
29958;SDS011;16815;51.100;6.516;2022-08-03T00:16:00;35.50;;;4.53;;
29958;SDS011;16815;51.100;6.516;2022-08-03T00:18:26;24.07;;;4.20;;
29958;SDS011;16815;51.100;6.516;2022-08-03T00:20:52;23.93;;;4.27;;
29958;SDS011;16815;51.100;6.516;2022-08-03T00:23:18;21.83;;;4.23;;
29958;SDS011;16815;51.100;6.516;2022-08-03T00:25:44;24.93;;;4.50;;
29958;SDS011;16815;51.100;6.516;2022-08-03T00:28:10;18.10;;;3.83;;
29958;SDS011;16815;51.100;6.516;2022-08-03T00:30:36;12.33;;;3.17;;
29958;SDS011;16815;51.100;6.516;2022-08-03T00:33:02;13.10;;;3.43;;
29958;SDS011;16815;51.100;6.516;2022-08-03T00:35:28;17.43;;;3.10;;
29958;SDS011;16815;51.100;6.516;2022-08-03T00:37:54;14.40;;;3.50;;
29958;SDS011;16815;51.100;6.516;2022-08-03T00:40:21;12.13;;;3.13;;
29958;SDS011;16815;51.100;6.516;2022-08-03T00:42:51;15.30;;;3.20;;
29958;SDS011;16815;51.100;6.516;2022-08-03T00:45:18;12.93;;;3.30;;
29958;SDS011;16815;51.100;6.516;2022-08-03T00:47:44;14.13;;;3.07;;
29958;SDS011;16815;51.100;6.516;2022-08-03T00:50:10;23.00;;;3.43;;
29958;SDS011;16815;51.100;6.516;2022-08-03T00:52:36;16.63;;;3.80;;
29958;SDS011;16815;51.100;6.516;2022-08-03T00:55:02;15.87;;;3.30;;
29958;SDS011;16815;51.100;6.516;2022-08-03T00:57:29;15.20;;;3.53;;
29958;SDS011;16815;51.100;6.516;2022-08-03T00:59:55;21.40;;;3.87;;
29958;SDS011;16815;51.100;6.516;2022-08-03T01:02:21;16.67;;;3.27;;
29958;SDS011;16815;51.100;6.516;2022-08-03T01:04:47;17.00;;;3.47;;
29958;SDS011;16815;51.100;6.516;2022-08-03T01:09:49;18.13;;;4.33;;
29958;SDS011;16815;51.100;6.516;2022-08-03T01:12:23;19.33;;;3.80;;
29958;SDS011;16815;51.100;6.516;2022-08-03T01:14:55;35.27;;;5.47;;
29958;SDS011;16815;51.100;6.516;2022-08-03T01:17:24;48.43;;;6.23;;
29958;SDS011;16815;51.100;6.516;2022-08-03T01:19:59;22.50;;;4.07;;
29958;SDS011;16815;51.100;6.516;2022-08-03T01:23:09;31.00;;;4.30;;
29958;SDS011;16815;51.100;6.516;2022-08-03T01:27:50;16.20;;;3.73;;
29958;SDS011;16815;51.100;6.516;2022-08-03T01:30:19;20.57;;;3.80;;
29958;SDS011;16815;51.100;6.516;2022-08-03T01:32:57;15.13;;;3.50;;
29958;SDS011;16815;51.100;6.516;2022-08-03T01:35:27;10.63;;;2.90;;
29958;SDS011;16815;51.100;6.516;2022-08-03T01:37:55;17.07;;;3.17;;
29958;SDS011;16815;51.100;6.516;2022-08-03T01:40:23;16.73;;;4.03;;
29958;SDS011;16815;51.100;6.516;2022-08-03T01:42:50;19.50;;;3.57;;
29958;SDS011;16815;51.100;6.516;2022-08-03T01:45:17;15.77;;;3.97;;
29958;SDS011;16815;51.100;6.516;2022-08-03T01:47:44;14.23;;;3.00;;
29958;SDS011;16815;51.100;6.516;2022-08-03T01:50:11;10.23;;;2.97;;
29958;SDS011;16815;51.100;6.516;2022-08-03T01:52:38;13.57;;;3.43;;
29958;SDS011;16815;51.100;6.516;2022-08-03T01:55:06;17.30;;;3.47;;
29958;SDS011;16815;51.100;6.516;2022-08-03T01:57:32;9.33;;;3.00;;
29958;SDS011;16815;51.100;6.516;2022-08-03T01:59:59;11.83;;;2.97;;
29958;SDS011;16815;51.100;6.516;2022-08-03T02:02:26;9.37;;;2.80;;
29958;SDS011;16815;51.100;6.516;2022-08-03T02:04:53;12.80;;;3.27;;
29958;SDS011;16815;51.100;6.516;2022-08-03T02:07:20;11.27;;;3.50;;
29958;SDS011;16815;51.100;6.516;2022-08-03T02:09:48;12.77;;;3.40;;
29958;SDS011;16815;51.100;6.516;2022-08-03T02:12:14;9.17;;;3.00;;
29958;SDS011;16815;51.100;6.516;2022-08-03T02:14:40;12.00;;;3.67;;
29958;SDS011;16815;51.100;6.516;2022-08-03T02:17:07;13.53;;;3.67;;
29958;SDS011;16815;51.100;6.516;2022-08-03T02:19:34;16.93;;;3.50;;
29958;SDS011;16815;51.100;6.516;2022-08-03T02:22:00;12.93;;;3.57;;
29958;SDS011;16815;51.100;6.516;2022-08-03T02:24:27;12.53;;;3.20;;
29958;SDS011;16815;51.100;6.516;2022-08-03T02:26:54;14.83;;;3.50;;
29958;SDS011;16815;51.100;6.516;2022-08-03T02:29:21;12.57;;;3.73;;
29958;SDS011;16815;51.100;6.516;2022-08-03T02:31:49;15.17;;;3.50;;
29958;SDS011;16815;51.100;6.516;2022-08-03T02:34:15;15.97;;;4.37;;
29958;SDS011;16815;51.100;6.516;2022-08-03T02:36:41;14.33;;;3.97;;
29958;SDS011;16815;51.100;6.516;2022-08-03T02:39:10;12.07;;;3.13;;
29958;SDS011;16815;51.100;6.516;2022-08-03T02:41:40;17.70;;;4.13;;
29958;SDS011;16815;51.100;6.516;2022-08-03T02:44:08;15.10;;;4.13;;
29958;SDS011;16815;51.100;6.516;2022-08-03T02:46:36;22.00;;;4.23;;
29958;SDS011;16815;51.100;6.516;2022-08-03T02:49:03;13.90;;;4.47;;
29958;SDS011;16815;51.100;6.516;2022-08-03T02:51:29;21.17;;;3.93;;
29958;SDS011;16815;51.100;6.516;2022-08-03T02:53:57;20.57;;;4.57;;
29958;SDS011;16815;51.100;6.516;2022-08-03T02:56:24;16.80;;;3.87;;
29958;SDS011;16815;51.100;6.516;2022-08-03T02:58:50;18.07;;;3.87;;
29958;SDS011;16815;51.100;6.516;2022-08-03T03:01:20;22.57;;;4.40;;
29958;SDS011;16815;51.100;6.516;2022-08-03T03:03:47;22.80;;;4.77;;
29958;SDS011;16815;51.100;6.516;2022-08-03T03:06:14;16.67;;;4.50;;
29958;SDS011;16815;51.100;6.516;2022-08-03T03:08:41;14.93;;;4.20;;
29958;SDS011;16815;51.100;6.516;2022-08-03T03:11:07;16.97;;;3.37;;
29958;SDS011;16815;51.100;6.516;2022-08-03T03:13:33;18.30;;;4.23;;
29958;SDS011;16815;51.100;6.516;2022-08-03T03:16:00;17.00;;;4.60;;
29958;SDS011;16815;51.100;6.516;2022-08-03T03:18:27;11.30;;;3.80;;
29958;SDS011;16815;51.100;6.516;2022-08-03T03:20:53;17.70;;;4.40;;
29958;SDS011;16815;51.100;6.516;2022-08-03T03:23:20;12.33;;;3.80;;
29958;SDS011;16815;51.100;6.516;2022-08-03T03:25:46;14.93;;;4.50;;
29958;SDS011;16815;51.100;6.516;2022-08-03T03:28:13;16.40;;;4.20;;
29958;SDS011;16815;51.100;6.516;2022-08-03T03:30:39;15.20;;;4.77;;
29958;SDS011;16815;51.100;6.516;2022-08-03T03:33:05;19.23;;;4.17;;
29958;SDS011;16815;51.100;6.516;2022-08-03T03:35:31;14.27;;;4.03;;
29958;SDS011;16815;51.100;6.516;2022-08-03T03:37:57;21.30;;;4.27;;
29958;SDS011;16815;51.100;6.516;2022-08-03T03:40:24;19.73;;;4.97;;
29958;SDS011;16815;51.100;6.516;2022-08-03T03:42:50;15.27;;;4.90;;
29958;SDS011;16815;51.100;6.516;2022-08-03T03:45:16;18.80;;;4.57;;
29958;SDS011;16815;51.100;6.516;2022-08-03T03:47:43;20.63;;;5.00;;
29958;SDS011;16815;51.100;6.516;2022-08-03T03:50:09;19.37;;;5.13;;
29958;SDS011;16815;51.100;6.516;2022-08-03T03:52:35;16.37;;;4.17;;
29958;SDS011;16815;51.100;6.516;2022-08-03T03:55:01;21.60;;;4.83;;
29958;SDS011;16815;51.100;6.516;2022-08-03T03:57:27;22.00;;;5.00;;
29958;SDS011;16815;51.100;6.516;2022-08-03T03:59:54;17.17;;;4.60;;
29958;SDS011;16815;51.100;6.516;2022-08-03T04:02:19;23.13;;;4.93;;
29958;SDS011;16815;51.100;6.516;2022-08-03T04:04:45;20.70;;;5.30;;
29958;SDS011;16815;51.100;6.516;2022-08-03T04:07:31;29.73;;;5.63;;
29958;SDS011;16815;51.100;6.516;2022-08-03T04:10:21;28.07;;;5.70;;
29958;SDS011;16815;51.100;6.516;2022-08-03T04:13:07;25.57;;;5.23;;
29958;SDS011;16815;51.100;6.516;2022-08-03T04:15:34;20.23;;;4.90;;
29958;SDS011;16815;51.100;6.516;2022-08-03T04:18:01;15.77;;;4.50;;
29958;SDS011;16815;51.100;6.516;2022-08-03T04:20:29;21.67;;;4.57;;
29958;SDS011;16815;51.100;6.516;2022-08-03T04:22:57;26.73;;;5.53;;
29958;SDS011;16815;51.100;6.516;2022-08-03T04:25:25;23.37;;;5.50;;
29958;SDS011;16815;51.100;6.516;2022-08-03T04:27:52;15.83;;;4.77;;
29958;SDS011;16815;51.100;6.516;2022-08-03T04:30:22;25.63;;;5.90;;
29958;SDS011;16815;51.100;6.516;2022-08-03T04:32:49;21.50;;;5.00;;
29958;SDS011;16815;51.100;6.516;2022-08-03T04:35:16;22.27;;;5.03;;
29958;SDS011;16815;51.100;6.516;2022-08-03T04:37:43;18.37;;;4.73;;
29958;SDS011;16815;51.100;6.516;2022-08-03T04:40:29;22.60;;;5.17;;
29958;SDS011;16815;51.100;6.516;2022-08-03T04:42:57;26.43;;;5.60;;
29958;SDS011;16815;51.100;6.516;2022-08-03T04:45:24;19.07;;;4.67;;
29958;SDS011;16815;51.100;6.516;2022-08-03T04:47:50;24.70;;;5.67;;
29958;SDS011;16815;51.100;6.516;2022-08-03T04:50:16;21.60;;;5.43;;
29958;SDS011;16815;51.100;6.516;2022-08-03T04:52:43;24.60;;;5.07;;
29958;SDS011;16815;51.100;6.516;2022-08-03T04:55:09;27.23;;;5.47;;
29958;SDS011;16815;51.100;6.516;2022-08-03T04:57:35;29.63;;;5.47;;
29958;SDS011;16815;51.100;6.516;2022-08-03T05:00:01;31.00;;;5.53;;
29958;SDS011;16815;51.100;6.516;2022-08-03T05:02:27;21.70;;;5.53;;
29958;SDS011;16815;51.100;6.516;2022-08-03T05:04:53;23.30;;;4.87;;
29958;SDS011;16815;51.100;6.516;2022-08-03T05:07:19;19.47;;;4.43;;
29958;SDS011;16815;51.100;6.516;2022-08-03T05:09:45;17.40;;;4.67;;
29958;SDS011;16815;51.100;6.516;2022-08-03T05:12:11;20.40;;;4.97;;
29958;SDS011;16815;51.100;6.516;2022-08-03T05:14:37;23.90;;;4.60;;
29958;SDS011;16815;51.100;6.516;2022-08-03T05:17:04;23.47;;;5.17;;
29958;SDS011;16815;51.100;6.516;2022-08-03T05:19:30;27.37;;;5.60;;
29958;SDS011;16815;51.100;6.516;2022-08-03T05:21:56;23.97;;;6.17;;
29958;SDS011;16815;51.100;6.516;2022-08-03T05:24:22;21.27;;;4.27;;
29958;SDS011;16815;51.100;6.516;2022-08-03T05:26:48;26.70;;;4.37;;
29958;SDS011;16815;51.100;6.516;2022-08-03T05:29:14;24.40;;;5.67;;
29958;SDS011;16815;51.100;6.516;2022-08-03T05:31:40;19.77;;;4.70;;
29958;SDS011;16815;51.100;6.516;2022-08-03T05:34:06;15.53;;;4.03;;
29958;SDS011;16815;51.100;6.516;2022-08-03T05:36:32;20.53;;;4.53;;
29958;SDS011;16815;51.100;6.516;2022-08-03T05:38:58;19.95;;;4.72;;
29958;SDS011;16815;51.100;6.516;2022-08-03T05:41:24;28.50;;;4.53;;
29958;SDS011;16815;51.100;6.516;2022-08-03T05:43:51;21.27;;;4.47;;
29958;SDS011;16815;51.100;6.516;2022-08-03T05:46:17;25.25;;;4.40;;
29958;SDS011;16815;51.100;6.516;2022-08-03T05:48:44;17.02;;;4.22;;
29958;SDS011;16815;51.100;6.516;2022-08-03T05:51:11;23.30;;;4.13;;
29958;SDS011;16815;51.100;6.516;2022-08-03T05:53:37;22.20;;;4.45;;
29958;SDS011;16815;51.100;6.516;2022-08-03T05:56:03;30.42;;;5.05;;
29958;SDS011;16815;51.100;6.516;2022-08-03T05:58:29;24.63;;;5.28;;
29958;SDS011;16815;51.100;6.516;2022-08-03T06:00:55;25.15;;;4.55;;
29958;SDS011;16815;51.100;6.516;2022-08-03T06:03:21;22.20;;;4.22;;
29958;SDS011;16815;51.100;6.516;2022-08-03T06:05:47;18.30;;;4.30;;
29958;SDS011;16815;51.100;6.516;2022-08-03T06:08:13;19.60;;;3.90;;
29958;SDS011;16815;51.100;6.516;2022-08-03T06:10:39;20.58;;;4.18;;
29958;SDS011;16815;51.100;6.516;2022-08-03T06:13:05;21.15;;;4.18;;
29958;SDS011;16815;51.100;6.516;2022-08-03T06:15:31;21.95;;;4.53;;
29958;SDS011;16815;51.100;6.516;2022-08-03T06:17:59;21.70;;;4.53;;
29958;SDS011;16815;51.100;6.516;2022-08-03T06:20:25;31.42;;;4.70;;
29958;SDS011;16815;51.100;6.516;2022-08-03T06:22:51;16.92;;;4.03;;
29958;SDS011;16815;51.100;6.516;2022-08-03T06:25:18;28.55;;;4.57;;
29958;SDS011;16815;51.100;6.516;2022-08-03T06:27:44;23.23;;;4.00;;
29958;SDS011;16815;51.100;6.516;2022-08-03T06:30:10;18.48;;;3.78;;
29958;SDS011;16815;51.100;6.516;2022-08-03T06:32:37;19.73;;;3.63;;
29958;SDS011;16815;51.100;6.516;2022-08-03T06:35:05;23.65;;;5.03;;
29958;SDS011;16815;51.100;6.516;2022-08-03T06:37:40;27.73;;;4.13;;
29958;SDS011;16815;51.100;6.516;2022-08-03T06:40:07;21.58;;;3.47;;
29958;SDS011;16815;51.100;6.516;2022-08-03T06:42:33;18.10;;;4.18;;
29958;SDS011;16815;51.100;6.516;2022-08-03T06:44:59;17.15;;;3.70;;
29958;SDS011;16815;51.100;6.516;2022-08-03T06:47:25;15.55;;;3.78;;
29958;SDS011;16815;51.100;6.516;2022-08-03T06:49:51;18.00;;;3.30;;
29958;SDS011;16815;51.100;6.516;2022-08-03T06:52:17;17.40;;;3.90;;
29958;SDS011;16815;51.100;6.516;2022-08-03T06:54:43;16.23;;;3.40;;
29958;SDS011;16815;51.100;6.516;2022-08-03T06:57:09;12.27;;;3.42;;
29958;SDS011;16815;51.100;6.516;2022-08-03T06:59:35;15.70;;;3.00;;
29958;SDS011;16815;51.100;6.516;2022-08-03T07:02:01;16.08;;;2.78;;
29958;SDS011;16815;51.100;6.516;2022-08-03T07:04:27;13.73;;;2.80;;
29958;SDS011;16815;51.100;6.516;2022-08-03T07:06:53;17.00;;;2.95;;
29958;SDS011;16815;51.100;6.516;2022-08-03T07:09:19;11.18;;;2.92;;
29958;SDS011;16815;51.100;6.516;2022-08-03T07:11:45;19.25;;;2.88;;
29958;SDS011;16815;51.100;6.516;2022-08-03T07:14:11;8.77;;;3.10;;
29958;SDS011;16815;51.100;6.516;2022-08-03T07:16:37;9.90;;;3.03;;
29958;SDS011;16815;51.100;6.516;2022-08-03T07:19:03;9.00;;;2.50;;
29958;SDS011;16815;51.100;6.516;2022-08-03T07:21:29;7.88;;;2.13;;
29958;SDS011;16815;51.100;6.516;2022-08-03T07:23:55;7.50;;;2.22;;
29958;SDS011;16815;51.100;6.516;2022-08-03T07:26:21;13.98;;;2.80;;
29958;SDS011;16815;51.100;6.516;2022-08-03T07:28:47;7.38;;;1.88;;
29958;SDS011;16815;51.100;6.516;2022-08-03T07:31:13;8.52;;;2.22;;
29958;SDS011;16815;51.100;6.516;2022-08-03T07:33:39;9.02;;;2.60;;
29958;SDS011;16815;51.100;6.516;2022-08-03T07:36:05;8.85;;;2.17;;
29958;SDS011;16815;51.100;6.516;2022-08-03T07:38:31;7.18;;;1.90;;
29958;SDS011;16815;51.100;6.516;2022-08-03T07:40:57;6.68;;;2.00;;
29958;SDS011;16815;51.100;6.516;2022-08-03T07:43:23;6.57;;;1.70;;
29958;SDS011;16815;51.100;6.516;2022-08-03T07:45:49;7.03;;;1.52;;
29958;SDS011;16815;51.100;6.516;2022-08-03T07:48:15;7.15;;;1.60;;
29958;SDS011;16815;51.100;6.516;2022-08-03T07:50:41;5.88;;;1.60;;
29958;SDS011;16815;51.100;6.516;2022-08-03T07:53:07;10.18;;;2.08;;
29958;SDS011;16815;51.100;6.516;2022-08-03T07:55:33;6.13;;;2.08;;
29958;SDS011;16815;51.100;6.516;2022-08-03T07:58:09;6.50;;;1.80;;
29958;SDS011;16815;51.100;6.516;2022-08-03T08:00:36;4.82;;;2.00;;
29958;SDS011;16815;51.100;6.516;2022-08-03T08:03:03;10.10;;;1.75;;
29958;SDS011;16815;51.100;6.516;2022-08-03T08:05:29;8.18;;;1.80;;
29958;SDS011;16815;51.100;6.516;2022-08-03T08:07:55;6.97;;;2.05;;
29958;SDS011;16815;51.100;6.516;2022-08-03T08:10:21;6.05;;;1.90;;
29958;SDS011;16815;51.100;6.516;2022-08-03T08:12:47;6.10;;;2.33;;
29958;SDS011;16815;51.100;6.516;2022-08-03T08:15:13;3.95;;;1.50;;
29958;SDS011;16815;51.100;6.516;2022-08-03T08:17:40;6.10;;;1.60;;
29958;SDS011;16815;51.100;6.516;2022-08-03T08:20:06;4.32;;;2.00;;
29958;SDS011;16815;51.100;6.516;2022-08-03T08:22:32;5.55;;;2.45;;
29958;SDS011;16815;51.100;6.516;2022-08-03T08:24:58;3.05;;;1.90;;
29958;SDS011;16815;51.100;6.516;2022-08-03T08:27:24;3.63;;;1.63;;
29958;SDS011;16815;51.100;6.516;2022-08-03T08:29:50;4.85;;;1.65;;
29958;SDS011;16815;51.100;6.516;2022-08-03T08:32:16;12.15;;;1.85;;
29958;SDS011;16815;51.100;6.516;2022-08-03T08:34:42;11.35;;;1.90;;
29958;SDS011;16815;51.100;6.516;2022-08-03T08:37:08;5.32;;;1.63;;
29958;SDS011;16815;51.100;6.516;2022-08-03T08:39:34;4.55;;;1.88;;
29958;SDS011;16815;51.100;6.516;2022-08-03T08:42:00;5.38;;;1.58;;
29958;SDS011;16815;51.100;6.516;2022-08-03T08:44:26;4.72;;;1.90;;
29958;SDS011;16815;51.100;6.516;2022-08-03T08:46:52;4.07;;;1.55;;
29958;SDS011;16815;51.100;6.516;2022-08-03T08:49:18;2.42;;;1.70;;
29958;SDS011;16815;51.100;6.516;2022-08-03T08:51:45;3.95;;;1.58;;
29958;SDS011;16815;51.100;6.516;2022-08-03T08:54:12;9.10;;;1.90;;
29958;SDS011;16815;51.100;6.516;2022-08-03T08:56:39;7.35;;;2.00;;
29958;SDS011;16815;51.100;6.516;2022-08-03T08:59:05;9.73;;;2.33;;
29958;SDS011;16815;51.100;6.516;2022-08-03T09:01:31;3.92;;;1.85;;
29958;SDS011;16815;51.100;6.516;2022-08-03T09:03:57;6.68;;;2.03;;
29958;SDS011;16815;51.100;6.516;2022-08-03T09:06:23;6.70;;;2.70;;
29958;SDS011;16815;51.100;6.516;2022-08-03T09:08:49;6.82;;;1.85;;
29958;SDS011;16815;51.100;6.516;2022-08-03T09:11:15;7.47;;;1.70;;
29958;SDS011;16815;51.100;6.516;2022-08-03T09:13:41;9.95;;;1.70;;
29958;SDS011;16815;51.100;6.516;2022-08-03T09:16:14;2.72;;;1.55;;
29958;SDS011;16815;51.100;6.516;2022-08-03T09:18:41;3.55;;;1.40;;
29958;SDS011;16815;51.100;6.516;2022-08-03T09:21:18;2.53;;;1.48;;
29958;SDS011;16815;51.100;6.516;2022-08-03T09:23:45;6.07;;;1.40;;
29958;SDS011;16815;51.100;6.516;2022-08-03T09:26:11;5.90;;;1.60;;
29958;SDS011;16815;51.100;6.516;2022-08-03T09:28:37;2.88;;;1.15;;
29958;SDS011;16815;51.100;6.516;2022-08-03T09:31:04;3.47;;;1.40;;
29958;SDS011;16815;51.100;6.516;2022-08-03T09:33:32;3.10;;;1.33;;
29958;SDS011;16815;51.100;6.516;2022-08-03T09:35:58;2.97;;;1.30;;
29958;SDS011;16815;51.100;6.516;2022-08-03T09:38:24;2.45;;;1.42;;
29958;SDS011;16815;51.100;6.516;2022-08-03T09:40:51;4.53;;;1.20;;
29958;SDS011;16815;51.100;6.516;2022-08-03T09:43:17;3.17;;;1.40;;
29958;SDS011;16815;51.100;6.516;2022-08-03T09:45:44;4.75;;;1.10;;
29958;SDS011;16815;51.100;6.516;2022-08-03T09:48:22;2.03;;;1.40;;
29958;SDS011;16815;51.100;6.516;2022-08-03T09:50:52;2.70;;;1.30;;
29958;SDS011;16815;51.100;6.516;2022-08-03T09:53:18;3.60;;;1.20;;
29958;SDS011;16815;51.100;6.516;2022-08-03T09:55:51;1.70;;;1.20;;
29958;SDS011;16815;51.100;6.516;2022-08-03T09:58:19;4.20;;;1.67;;
29958;SDS011;16815;51.100;6.516;2022-08-03T10:03:20;3.55;;;1.45;;
29958;SDS011;16815;51.100;6.516;2022-08-03T10:05:46;3.20;;;1.02;;
29958;SDS011;16815;51.100;6.516;2022-08-03T10:08:16;10.70;;;1.80;;
29958;SDS011;16815;51.100;6.516;2022-08-03T10:10:42;2.05;;;1.30;;
29958;SDS011;16815;51.100;6.516;2022-08-03T10:13:10;3.55;;;1.73;;
29958;SDS011;16815;51.100;6.516;2022-08-03T10:15:37;4.32;;;1.23;;
29958;SDS011;16815;51.100;6.516;2022-08-03T10:18:03;3.38;;;1.45;;
29958;SDS011;16815;51.100;6.516;2022-08-03T10:20:30;6.95;;;1.45;;
29958;SDS011;16815;51.100;6.516;2022-08-03T10:22:57;3.03;;;1.20;;
29958;SDS011;16815;51.100;6.516;2022-08-03T10:25:24;3.63;;;1.40;;
29958;SDS011;16815;51.100;6.516;2022-08-03T10:27:50;2.15;;;1.10;;
29958;SDS011;16815;51.100;6.516;2022-08-03T10:30:17;2.40;;;1.40;;
29958;SDS011;16815;51.100;6.516;2022-08-03T10:33:04;3.13;;;1.33;;
29958;SDS011;16815;51.100;6.516;2022-08-03T10:35:32;2.65;;;1.40;;
29958;SDS011;16815;51.100;6.516;2022-08-03T10:38:00;2.65;;;1.00;;
29958;SDS011;16815;51.100;6.516;2022-08-03T10:40:27;1.42;;;1.00;;
29958;SDS011;16815;51.100;6.516;2022-08-03T10:42:55;5.90;;;1.30;;
29958;SDS011;16815;51.100;6.516;2022-08-03T10:45:23;1.63;;;1.15;;
29958;SDS011;16815;51.100;6.516;2022-08-03T10:47:50;2.28;;;1.00;;
29958;SDS011;16815;51.100;6.516;2022-08-03T10:50:16;1.52;;;1.10;;
29958;SDS011;16815;51.100;6.516;2022-08-03T10:52:52;4.40;;;1.33;;
29958;SDS011;16815;51.100;6.516;2022-08-03T11:01:11;3.95;;;1.50;;
29958;SDS011;16815;51.100;6.516;2022-08-03T11:06:23;2.60;;;1.50;;
29958;SDS011;16815;51.100;6.516;2022-08-03T11:09:35;1.20;;;1.10;;
29958;SDS011;16815;51.100;6.516;2022-08-03T11:11:36;2.80;;;1.17;;
29958;SDS011;16815;51.100;6.516;2022-08-03T11:16:30;1.95;;;1.10;;
29958;SDS011;16815;51.100;6.516;2022-08-03T11:18:59;4.15;;;1.27;;
29958;SDS011;16815;51.100;6.516;2022-08-03T11:24:10;3.00;;;1.38;;
29958;SDS011;16815;51.100;6.516;2022-08-03T11:27:15;6.18;;;1.90;;
29958;SDS011;16815;51.100;6.516;2022-08-03T11:37:36;2.20;;;1.48;;
29958;SDS011;16815;51.100;6.516;2022-08-03T11:43:00;3.05;;;1.52;;
29958;SDS011;16815;51.100;6.516;2022-08-03T11:45:26;3.58;;;1.40;;
29958;SDS011;16815;51.100;6.516;2022-08-03T11:47:55;1.90;;;1.65;;
29958;SDS011;16815;51.100;6.516;2022-08-03T11:50:24;2.65;;;1.30;;
29958;SDS011;16815;51.100;6.516;2022-08-03T11:52:50;3.30;;;1.48;;
29958;SDS011;16815;51.100;6.516;2022-08-03T11:55:18;4.30;;;1.38;;
29958;SDS011;16815;51.100;6.516;2022-08-03T11:57:45;1.92;;;1.45;;
29958;SDS011;16815;51.100;6.516;2022-08-03T12:00:30;4.38;;;1.40;;
29958;SDS011;16815;51.100;6.516;2022-08-03T12:05:42;3.20;;;1.50;;
29958;SDS011;16815;51.100;6.516;2022-08-03T12:08:09;2.90;;;1.55;;
29958;SDS011;16815;51.100;6.516;2022-08-03T12:10:35;3.55;;;1.30;;
29958;SDS011;16815;51.100;6.516;2022-08-03T12:13:02;2.88;;;1.27;;
29958;SDS011;16815;51.100;6.516;2022-08-03T12:15:35;4.57;;;1.30;;
29958;SDS011;16815;51.100;6.516;2022-08-03T12:18:03;1.42;;;1.20;;
29958;SDS011;16815;51.100;6.516;2022-08-03T12:20:30;1.45;;;1.30;;
29958;SDS011;16815;51.100;6.516;2022-08-03T12:23:01;3.10;;;1.25;;
29958;SDS011;16815;51.100;6.516;2022-08-03T12:25:28;1.65;;;1.20;;
29958;SDS011;16815;51.100;6.516;2022-08-03T12:27:55;1.30;;;1.10;;
29958;SDS011;16815;51.100;6.516;2022-08-03T12:30:30;2.08;;;1.13;;
29958;SDS011;16815;51.100;6.516;2022-08-03T12:32:56;2.95;;;1.00;;
29958;SDS011;16815;51.100;6.516;2022-08-03T12:35:22;3.60;;;1.40;;
29958;SDS011;16815;51.100;6.516;2022-08-03T12:37:49;3.25;;;1.35;;
29958;SDS011;16815;51.100;6.516;2022-08-03T12:40:23;3.40;;;1.20;;
29958;SDS011;16815;51.100;6.516;2022-08-03T12:42:50;5.35;;;1.30;;
29958;SDS011;16815;51.100;6.516;2022-08-03T12:45:17;2.92;;;1.08;;
29958;SDS011;16815;51.100;6.516;2022-08-03T12:47:54;1.98;;;1.23;;
29958;SDS011;16815;51.100;6.516;2022-08-03T12:50:27;2.63;;;1.10;;
29958;SDS011;16815;51.100;6.516;2022-08-03T12:52:54;2.92;;;1.30;;
29958;SDS011;16815;51.100;6.516;2022-08-03T12:55:21;5.38;;;1.00;;
29958;SDS011;16815;51.100;6.516;2022-08-03T12:57:47;3.08;;;1.02;;
29958;SDS011;16815;51.100;6.516;2022-08-03T13:00:15;3.78;;;1.20;;
29958;SDS011;16815;51.100;6.516;2022-08-03T13:02:41;4.30;;;1.00;;
29958;SDS011;16815;51.100;6.516;2022-08-03T13:05:08;3.20;;;1.00;;
29958;SDS011;16815;51.100;6.516;2022-08-03T13:07:44;4.28;;;1.00;;
29958;SDS011;16815;51.100;6.516;2022-08-03T13:10:11;2.13;;;1.10;;
29958;SDS011;16815;51.100;6.516;2022-08-03T13:12:51;2.05;;;1.05;;
29958;SDS011;16815;51.100;6.516;2022-08-03T13:15:17;3.95;;;1.10;;
29958;SDS011;16815;51.100;6.516;2022-08-03T13:17:43;2.30;;;1.50;;
29958;SDS011;16815;51.100;6.516;2022-08-03T13:20:09;0.93;;;0.80;;
29958;SDS011;16815;51.100;6.516;2022-08-03T13:22:35;1.48;;;1.00;;
29958;SDS011;16815;51.100;6.516;2022-08-03T13:25:02;2.53;;;0.90;;
29958;SDS011;16815;51.100;6.516;2022-08-03T13:27:28;2.95;;;0.77;;
29958;SDS011;16815;51.100;6.516;2022-08-03T13:29:55;2.05;;;1.05;;
29958;SDS011;16815;51.100;6.516;2022-08-03T13:32:21;1.38;;;0.70;;
29958;SDS011;16815;51.100;6.516;2022-08-03T13:34:47;1.83;;;0.75;;
29958;SDS011;16815;51.100;6.516;2022-08-03T13:37:14;1.00;;;0.68;;
29958;SDS011;16815;51.100;6.516;2022-08-03T13:39:40;1.60;;;0.90;;
29958;SDS011;16815;51.100;6.516;2022-08-03T13:42:06;2.95;;;0.90;;
29958;SDS011;16815;51.100;6.516;2022-08-03T13:44:32;5.43;;;1.00;;
29958;SDS011;16815;51.100;6.516;2022-08-03T13:47:00;4.82;;;1.77;;
29958;SDS011;16815;51.100;6.516;2022-08-03T13:49:26;2.10;;;1.00;;
29958;SDS011;16815;51.100;6.516;2022-08-03T13:51:53;1.00;;;0.68;;
29958;SDS011;16815;51.100;6.516;2022-08-03T13:54:19;1.33;;;0.70;;
29958;SDS011;16815;51.100;6.516;2022-08-03T13:56:45;4.40;;;1.05;;
29958;SDS011;16815;51.100;6.516;2022-08-03T13:59:16;2.17;;;0.90;;
29958;SDS011;16815;51.100;6.516;2022-08-03T14:01:43;2.58;;;0.82;;
29958;SDS011;16815;51.100;6.516;2022-08-03T14:04:09;3.20;;;1.45;;
29958;SDS011;16815;51.100;6.516;2022-08-03T14:06:35;1.08;;;0.80;;
29958;SDS011;16815;51.100;6.516;2022-08-03T14:09:01;1.73;;;0.80;;
29958;SDS011;16815;51.100;6.516;2022-08-03T14:11:27;1.63;;;0.63;;
29958;SDS011;16815;51.100;6.516;2022-08-03T14:13:53;3.55;;;0.60;;
29958;SDS011;16815;51.100;6.516;2022-08-03T14:16:19;1.15;;;0.60;;
29958;SDS011;16815;51.100;6.516;2022-08-03T14:18:45;1.00;;;0.60;;
29958;SDS011;16815;51.100;6.516;2022-08-03T14:21:11;2.13;;;0.65;;
29958;SDS011;16815;51.100;6.516;2022-08-03T14:23:37;1.13;;;0.60;;
29958;SDS011;16815;51.100;6.516;2022-08-03T14:26:05;1.13;;;0.60;;
29958;SDS011;16815;51.100;6.516;2022-08-03T14:28:31;0.77;;;0.50;;
29958;SDS011;16815;51.100;6.516;2022-08-03T14:30:57;0.88;;;0.35;;
29958;SDS011;16815;51.100;6.516;2022-08-03T14:33:24;3.08;;;0.70;;
29958;SDS011;16815;51.100;6.516;2022-08-03T14:35:52;2.22;;;0.47;;
29958;SDS011;16815;51.100;6.516;2022-08-03T14:38:18;1.15;;;0.60;;
29958;SDS011;16815;51.100;6.516;2022-08-03T14:40:44;1.63;;;0.70;;
29958;SDS011;16815;51.100;6.516;2022-08-03T14:43:11;1.40;;;0.73;;
29958;SDS011;16815;51.100;6.516;2022-08-03T14:45:37;2.33;;;0.80;;
29958;SDS011;16815;51.100;6.516;2022-08-03T14:48:03;1.20;;;0.60;;
29958;SDS011;16815;51.100;6.516;2022-08-03T14:50:29;2.80;;;0.88;;
29958;SDS011;16815;51.100;6.516;2022-08-03T14:52:55;1.08;;;0.65;;
29958;SDS011;16815;51.100;6.516;2022-08-03T14:55:21;2.72;;;0.80;;
29958;SDS011;16815;51.100;6.516;2022-08-03T14:57:47;0.90;;;0.50;;
29958;SDS011;16815;51.100;6.516;2022-08-03T15:00:13;4.75;;;1.20;;
29958;SDS011;16815;51.100;6.516;2022-08-03T15:02:40;3.78;;;0.70;;
29958;SDS011;16815;51.100;6.516;2022-08-03T15:05:06;0.82;;;0.40;;
29958;SDS011;16815;51.100;6.516;2022-08-03T15:07:32;1.33;;;0.50;;
29958;SDS011;16815;51.100;6.516;2022-08-03T15:09:58;2.25;;;0.60;;
29958;SDS011;16815;51.100;6.516;2022-08-03T15:12:24;1.88;;;0.70;;
29958;SDS011;16815;51.100;6.516;2022-08-03T15:14:50;2.30;;;0.70;;
29958;SDS011;16815;51.100;6.516;2022-08-03T15:17:16;1.67;;;0.63;;